Time;durP1;ratioP1;P1;durP2;ratioP2;P2;SDS_P1;SDS_P2;PMS_P1;PMS_P2;Temp;Humidity;BMP_temperature;BMP_pressure;BME280_temperature;BME280_humidity;BME280_pressure;Samples;Min_cycle;Max_cycle;Signal;HPM_P1;HPM_P2
2021/10/21 00:01:37;;;;;;;5.55;2.58;;;;;;;12.18;75.19;94467.50;5069669;28;20045;-79
2021/10/21 00:04:03;;;;;;;5.53;2.72;;;;;;;12.30;75.23;94465.84;5062848;28;20422;-78
2021/10/21 00:06:29;;;;;;;7.30;2.92;;;;;;;12.37;74.06;94454.06;5064590;28;20066;-77
2021/10/21 00:08:54;;;;;;;4.18;2.72;;;;;;;12.43;73.42;94464.19;5049348;28;20529;-78
2021/10/21 00:11:20;;;;;;;8.57;3.10;;;;;;;12.53;72.81;94442.00;5049838;28;20041;-78
2021/10/21 00:13:46;;;;;;;6.90;2.83;;;;;;;12.52;73.17;94450.25;5062502;28;20101;-78
2021/10/21 00:16:11;;;;;;;4.50;2.63;;;;;;;12.63;71.68;94436.44;5041484;28;20418;-77
2021/10/21 00:18:37;;;;;;;4.95;2.95;;;;;;;12.65;71.54;94436.91;5062135;28;20064;-77
2021/10/21 00:21:03;;;;;;;6.45;2.78;;;;;;;12.72;71.01;94433.81;5050771;28;20045;-77
2021/10/21 00:23:28;;;;;;;6.78;2.97;;;;;;;12.76;71.18;94418.16;5060358;28;20045;-77
2021/10/21 00:25:54;;;;;;;5.20;2.92;;;;;;;12.85;69.74;94421.56;5047222;28;20067;-77
2021/10/21 00:28:19;;;;;;;6.15;2.80;;;;;;;12.92;69.63;94413.19;5048063;28;20426;-77
2021/10/21 00:30:45;;;;;;;8.60;2.60;;;;;;;12.97;69.24;94410.38;5050597;28;20490;-78
2021/10/21 00:33:11;;;;;;;5.57;3.17;;;;;;;13.06;69.02;94402.44;5061278;28;20041;-77
2021/10/21 00:35:36;;;;;;;4.75;2.80;;;;;;;13.10;68.33;94395.44;5051706;28;20052;-78
2021/10/21 00:38:02;;;;;;;7.20;3.30;;;;;;;13.21;68.34;94401.97;5054823;28;20044;-77
2021/10/21 00:40:27;;;;;;;5.93;3.22;;;;;;;13.21;67.62;94390.63;5042589;28;20049;-77
2021/10/21 00:42:53;;;;;;;5.45;3.15;;;;;;;13.37;67.41;94393.59;5047063;28;20051;-77
2021/10/21 00:45:19;;;;;;;5.15;3.03;;;;;;;13.37;66.88;94367.16;5051916;28;20038;-77
2021/10/21 00:47:45;;;;;;;6.65;3.10;;;;;;;13.38;66.41;94363.44;5052773;28;20072;-77
2021/10/21 00:50:12;;;;;;;5.18;3.35;;;;;;;13.46;66.12;94370.56;5033239;28;20110;-77
2021/10/21 00:52:37;;;;;;;5.68;3.10;;;;;;;13.50;66.04;94366.19;5040076;28;20514;-77
2021/10/21 00:55:04;;;;;;;6.78;3.33;;;;;;;13.50;66.14;94364.34;5045341;28;20041;-77
2021/10/21 00:57:30;;;;;;;5.53;2.88;;;;;;;13.61;64.32;94351.53;5041129;28;20107;-78
2021/10/21 00:59:56;;;;;;;5.63;3.13;;;;;;;13.64;64.61;94353.56;5045834;28;20076;-77
2021/10/21 01:02:21;;;;;;;5.75;3.50;;;;;;;13.72;63.94;94345.91;5054015;28;20071;-77
2021/10/21 01:04:47;;;;;;;6.05;3.40;;;;;;;13.73;63.67;94332.38;5052270;28;20093;-78
2021/10/21 01:07:14;;;;;;;5.55;3.40;;;;;;;13.71;63.73;94323.22;5058397;28;20490;-77
2021/10/21 01:09:42;;;;;;;7.43;3.30;;;;;;;13.74;63.97;94338.44;5042338;28;20041;-77
2021/10/21 01:12:10;;;;;;;8.18;3.38;;;;;;;13.74;63.48;94327.88;5050017;28;20395;-77
2021/10/21 01:14:36;;;;;;;8.55;3.22;;;;;;;13.73;63.50;94331.59;5052533;28;20048;-77
2021/10/21 01:17:02;;;;;;;7.13;3.63;;;;;;;13.75;63.16;94318.81;5044812;28;20040;-77
2021/10/21 01:19:28;;;;;;;7.03;3.42;;;;;;;13.82;62.24;94313.81;5052268;28;20116;-77
2021/10/21 01:21:55;;;;;;;6.75;3.72;;;;;;;13.77;62.45;94311.38;5034485;28;20037;-77
2021/10/21 01:24:21;;;;;;;5.90;3.60;;;;;;;13.73;62.69;94305.94;5040969;28;20412;-77
2021/10/21 01:26:50;;;;;;;7.47;3.53;;;;;;;13.77;62.91;94306.09;5015170;28;20053;-77
2021/10/21 01:29:17;;;;;;;7.43;3.67;;;;;;;13.76;62.42;94283.38;5033762;28;20391;-78
2021/10/21 01:31:43;;;;;;;9.43;4.35;;;;;;;13.74;62.11;94275.00;5033076;28;20041;-77
2021/10/21 01:34:11;;;;;;;7.00;3.60;;;;;;;13.76;61.83;94272.78;5037986;28;20514;-77
2021/10/21 01:36:37;;;;;;;6.45;2.92;;;;;;;13.79;61.40;94267.66;5036451;28;20045;-78
2021/10/21 01:39:05;;;;;;;5.90;3.20;;;;;;;13.83;61.45;94263.28;5071738;28;20493;-78
2021/10/21 01:41:32;;;;;;;5.25;3.30;;;;;;;13.82;61.39;94263.56;5029496;28;20049;-77
2021/10/21 01:43:57;;;;;;;6.90;3.78;;;;;;;13.75;61.64;94250.88;5052932;28;20271;-78
2021/10/21 01:46:23;;;;;;;6.03;3.40;;;;;;;13.68;61.98;94247.97;5040504;28;20438;-77
2021/10/21 01:48:49;;;;;;;5.78;3.40;;;;;;;13.71;60.99;94243.91;5072143;28;20141;-77
2021/10/21 01:51:15;;;;;;;7.32;3.70;;;;;;;13.63;61.43;94254.22;5055332;28;20042;-77
2021/10/21 01:53:40;;;;;;;6.05;3.10;;;;;;;13.67;61.04;94251.69;5020887;28;20553;-77
2021/10/21 01:56:06;;;;;;;7.25;3.55;;;;;;;13.54;61.79;94224.41;5016556;28;20045;-77
2021/10/21 01:58:33;;;;;;;8.52;3.78;;;;;;;13.51;61.54;94236.38;5051546;28;20550;-77
2021/10/21 02:00:58;;;;;;;10.00;3.63;;;;;;;13.46;62.59;94230.50;5052738;28;20083;-77
2021/10/21 02:03:24;;;;;;;8.38;3.85;;;;;;;13.39;62.46;94222.28;5051685;28;20083;-77
2021/10/21 02:05:49;;;;;;;6.00;3.40;;;;;;;13.40;61.96;94227.25;5055989;28;20077;-78
2021/10/21 02:08:15;;;;;;;6.85;3.53;;;;;;;13.39;62.15;94211.72;5036884;28;20037;-77
2021/10/21 02:10:41;;;;;;;8.13;3.72;;;;;;;13.38;61.75;94226.03;5047224;28;20120;-77
2021/10/21 02:13:07;;;;;;;5.85;3.45;;;;;;;13.46;61.40;94219.91;5051921;28;20102;-77
2021/10/21 02:15:33;;;;;;;5.72;3.50;;;;;;;13.56;60.70;94211.66;5052622;28;20045;-77
2021/10/21 02:17:58;;;;;;;8.68;3.80;;;;;;;13.52;61.07;94184.31;5055715;28;20057;-77
2021/10/21 02:20:24;;;;;;;6.05;3.60;;;;;;;13.55;61.15;94175.72;5024342;28;20034;-77
2021/10/21 02:22:50;;;;;;;6.10;3.85;;;;;;;13.55;60.60;94178.38;5046451;28;20039;-77
2021/10/21 02:25:17;;;;;;;7.10;3.88;;;;;;;13.56;60.73;94172.00;5028073;28;20044;-77
2021/10/21 02:27:42;;;;;;;6.55;3.75;;;;;;;13.61;60.47;94171.03;5042220;28;20123;-78
2021/10/21 02:30:10;;;;;;;7.15;3.10;;;;;;;13.56;60.23;94158.78;5071315;28;20127;-77
2021/10/21 02:32:36;;;;;;;8.35;3.63;;;;;;;13.58;60.49;94167.16;5039681;28;20037;-78
2021/10/21 02:35:03;;;;;;;6.07;3.17;;;;;;;13.72;59.67;94166.13;5052409;28;20094;-78
2021/10/21 02:37:28;;;;;;;5.82;3.45;;;;;;;13.61;60.16;94163.88;5055046;28;20092;-77
2021/10/21 02:39:54;;;;;;;6.22;3.42;;;;;;;13.61;59.94;94166.50;5052290;28;20045;-77
2021/10/21 02:42:19;;;;;;;7.03;3.63;;;;;;;13.68;59.63;94173.94;5039837;28;20033;-77
2021/10/21 02:44:45;;;;;;;6.22;3.75;;;;;;;13.68;59.80;94164.13;5051781;28;20114;-77
2021/10/21 02:47:10;;;;;;;7.18;3.50;;;;;;;13.62;60.11;94173.34;5037423;28;20055;-78
2021/10/21 02:49:36;;;;;;;7.60;3.80;;;;;;;13.67;59.70;94170.50;5053350;28;20048;-77
2021/10/21 02:52:02;;;;;;;6.03;3.67;;;;;;;13.64;59.93;94155.28;5053842;28;20041;-77
2021/10/21 02:54:28;;;;;;;11.52;4.00;;;;;;;13.26;62.18;94187.81;5049707;28;20044;-77
2021/10/21 02:56:53;;;;;;;7.03;3.65;;;;;;;13.14;61.97;94203.56;5051391;28;20056;-77
2021/10/21 02:59:19;;;;;;;6.18;3.70;;;;;;;13.13;62.19;94220.50;5071313;28;20042;-77
2021/10/21 03:01:44;;;;;;;7.13;3.88;;;;;;;13.05;62.78;94208.88;5052315;28;20454;-77
2021/10/21 03:04:10;;;;;;;6.75;3.92;;;;;;;12.98;63.63;94196.16;5060605;28;20041;-77
2021/10/21 03:06:36;;;;;;;9.27;4.30;;;;;;;12.81;63.91;94204.13;5052946;28;20102;-77
2021/10/21 03:09:02;;;;;;;7.80;4.05;;;;;;;12.78;63.95;94210.06;5070488;28;20052;-78
2021/10/21 03:11:28;;;;;;;9.68;4.43;;;;;;;12.72;65.01;94216.59;5041628;28;20128;-78
2021/10/21 03:13:53;;;;;;;7.43;3.47;;;;;;;12.69;65.14;94209.31;5053960;28;20609;-77
2021/10/21 03:16:19;;;;;;;6.95;3.88;;;;;;;12.88;65.53;94201.03;5020185;28;20091;-78
2021/10/21 03:18:44;;;;;;;7.22;3.78;;;;;;;12.74;66.77;94214.41;5058244;28;20413;-78
2021/10/21 03:21:10;;;;;;;9.55;4.07;;;;;;;12.64;65.87;94236.63;5070105;28;20390;-78
2021/10/21 03:23:36;;;;;;;8.18;4.00;;;;;;;12.68;66.24;94252.63;5048695;28;20113;-76
2021/10/21 03:26:01;;;;;;;11.77;4.13;;;;;;;12.60;66.13;94273.44;5039742;28;20058;-77
2021/10/21 03:28:27;;;;;;;9.38;4.45;;;;;;;12.67;65.43;94295.94;5050361;28;20049;-77
2021/10/21 03:30:52;;;;;;;7.03;4.13;;;;;;;12.69;65.34;94288.50;5050384;28;20048;-77
2021/10/21 03:33:18;;;;;;;13.40;4.03;;;;;;;12.65;65.95;94291.72;5049589;28;20091;-78
2021/10/21 03:35:43;;;;;;;10.65;4.05;;;;;;;12.65;65.61;94312.06;5047038;28;20144;-78
2021/10/21 03:38:09;;;;;;;7.03;3.90;;;;;;;12.67;65.52;94335.53;5031937;28;20102;-77
2021/10/21 03:40:36;;;;;;;7.40;3.78;;;;;;;12.73;65.45;94339.53;5050179;28;20566;-78
2021/10/21 03:43:02;;;;;;;6.88;3.78;;;;;;;12.71;65.74;94336.47;5050377;28;20044;-77
2021/10/21 03:45:28;;;;;;;6.72;3.60;;;;;;;12.82;64.87;94321.84;5047537;28;20490;-77
2021/10/21 03:47:53;;;;;;;9.60;4.03;;;;;;;12.77;65.32;94316.72;5058783;28;20037;-77
2021/10/21 03:50:19;;;;;;;6.00;3.58;;;;;;;12.84;65.18;94314.38;5045117;28;20060;-77
2021/10/21 03:52:45;;;;;;;6.60;3.80;;;;;;;12.83;65.60;94326.06;5030446;28;20125;-78
2021/10/21 03:55:10;;;;;;;7.53;3.72;;;;;;;12.93;65.64;94320.44;5022899;28;20401;-77
2021/10/21 03:57:37;;;;;;;6.78;4.07;;;;;;;12.87;65.93;94340.16;5067481;28;20094;-78
2021/10/21 04:00:05;;;;;;;7.65;3.80;;;;;;;12.72;66.32;94338.78;5051853;28;20450;-77
2021/10/21 04:02:31;;;;;;;7.78;4.00;;;;;;;12.62;67.08;94334.59;5066468;28;20095;-78
2021/10/21 04:04:56;;;;;;;6.88;4.30;;;;;;;12.63;66.83;94351.97;5041215;28;20045;-77
2021/10/21 04:07:22;;;;;;;10.00;4.05;;;;;;;12.64;67.30;94353.53;5060746;28;20049;-77
2021/10/21 04:09:48;;;;;;;8.68;3.90;;;;;;;12.75;66.55;94353.22;5069473;28;20113;-78
2021/10/21 04:12:13;;;;;;;8.43;4.00;;;;;;;12.67;67.10;94369.84;5053056;28;20434;-78
2021/10/21 04:14:41;;;;;;;7.97;4.00;;;;;;;12.56;67.70;94372.78;5019213;28;20033;-78
2021/10/21 04:17:06;;;;;;;7.18;4.10;;;;;;;12.56;67.69;94414.25;5043308;28;20098;-77
2021/10/21 04:19:32;;;;;;;7.38;4.13;;;;;;;12.43;68.88;94410.66;5059107;28;20044;-78
2021/10/21 04:21:59;;;;;;;10.63;4.72;;;;;;;12.45;69.31;94430.34;5071624;28;20506;-78
2021/10/21 04:24:24;;;;;;;6.90;4.05;;;;;;;12.31;69.12;94440.22;5057688;28;20541;-78
2021/10/21 04:26:50;;;;;;;7.70;3.83;;;;;;;12.45;69.95;94450.69;5065041;28;20140;-77
2021/10/21 04:29:15;;;;;;;10.18;4.10;;;;;;;12.61;67.96;94449.19;5066442;28;20387;-78
2021/10/21 04:31:41;;;;;;;10.20;4.00;;;;;;;12.49;68.99;94441.06;5061272;28;20041;-77
2021/10/21 04:34:06;;;;;;;9.15;4.55;;;;;;;12.47;69.18;94453.81;5064853;28;20511;-78
2021/10/21 04:36:32;;;;;;;11.88;4.25;;;;;;;12.56;69.14;94436.13;5055692;28;20044;-78
2021/10/21 04:38:58;;;;;;;10.18;4.40;;;;;;;12.54;69.77;94448.84;5052748;28;20044;-77
2021/10/21 04:41:23;;;;;;;9.38;4.43;;;;;;;12.84;69.27;94446.41;5054391;28;20548;-78
2021/10/21 04:43:49;;;;;;;8.07;4.40;;;;;;;12.80;69.22;94446.25;5066530;28;20036;-78
2021/10/21 04:46:14;;;;;;;7.75;4.35;;;;;;;12.91;68.20;94441.44;5053577;28;20041;-77
2021/10/21 04:48:40;;;;;;;7.50;3.97;;;;;;;12.87;68.92;94434.44;5061817;28;20482;-78
2021/10/21 04:51:06;;;;;;;7.88;4.10;;;;;;;12.97;68.19;94428.84;5069060;28;20051;-77
2021/10/21 04:53:32;;;;;;;6.78;4.25;;;;;;;12.94;68.56;94408.34;5072384;28;20127;-77
2021/10/21 04:55:57;;;;;;;8.95;4.45;;;;;;;12.86;69.70;94409.91;5035467;28;20101;-77
2021/10/21 04:58:23;;;;;;;9.02;4.78;;;;;;;12.78;70.50;94410.69;5052654;28;20592;-78
2021/10/21 05:00:49;;;;;;;7.70;4.35;;;;;;;12.74;70.98;94396.53;5061423;28;20048;-77
2021/10/21 05:03:14;;;;;;;9.35;4.53;;;;;;;12.77;70.75;94403.84;5064339;28;20447;-78
2021/10/21 05:05:41;;;;;;;7.88;4.40;;;;;;;12.56;72.51;94385.97;5055805;28;20041;-77
2021/10/21 05:08:07;;;;;;;9.73;4.80;;;;;;;12.54;71.69;94392.63;5022019;28;20052;-78
2021/10/21 05:10:32;;;;;;;11.70;4.75;;;;;;;12.74;71.14;94404.47;5044027;28;20041;-77
2021/10/21 05:12:58;;;;;;;11.40;5.28;;;;;;;12.74;71.40;94415.03;5063856;28;20048;-78
2021/10/21 05:15:24;;;;;;;9.50;5.15;;;;;;;12.82;72.21;94453.84;5063366;28;20041;-78
2021/10/21 05:17:51;;;;;;;9.30;4.57;;;;;;;12.86;72.36;94432.88;5044566;28;20088;-78
2021/10/21 05:20:17;;;;;;;10.38;4.75;;;;;;;12.82;72.66;94401.06;5068153;28;20045;-77
2021/10/21 05:22:42;;;;;;;11.48;4.90;;;;;;;12.81;72.23;94389.72;5073790;28;20056;-77
2021/10/21 05:25:09;;;;;;;12.02;5.15;;;;;;;12.81;73.20;94384.44;5063665;28;20052;-77
2021/10/21 05:27:38;;;;;;;9.40;4.90;;;;;;;12.75;73.75;94384.91;5036913;28;20056;-77
2021/10/21 05:30:07;;;;;;;11.60;5.18;;;;;;;12.77;72.80;94372.16;5062391;28;20052;-79
2021/10/21 05:32:33;;;;;;;9.35;5.68;;;;;;;12.88;72.57;94368.13;5062521;28;20037;-77
2021/10/21 05:34:59;;;;;;;10.95;5.07;;;;;;;13.00;71.90;94370.94;5055693;28;20051;-77
2021/10/21 05:37:25;;;;;;;12.05;6.80;;;;;;;13.25;70.46;94365.91;5071110;28;20036;-78
2021/10/21 05:39:51;;;;;;;10.10;5.63;;;;;;;13.45;69.40;94353.94;5061378;28;20037;-77
2021/10/21 05:42:17;;;;;;;10.50;5.30;;;;;;;13.64;68.42;94350.91;5040427;28;20136;-78
2021/10/21 05:44:43;;;;;;;8.85;4.93;;;;;;;13.88;66.94;94343.50;5069371;28;20627;-77
2021/10/21 05:47:09;;;;;;;12.32;5.72;;;;;;;14.02;66.42;94376.59;5034653;28;20063;-78
2021/10/21 05:49:35;;;;;;;9.23;4.95;;;;;;;14.11;66.82;94407.53;5057332;28;20099;-78
2021/10/21 05:52:00;;;;;;;8.73;5.22;;;;;;;14.13;67.25;94402.69;5058121;28;20045;-77
2021/10/21 05:54:26;;;;;;;11.50;6.10;;;;;;;14.09;67.43;94428.22;5062513;28;20044;-77
2021/10/21 05:56:52;;;;;;;9.35;5.00;;;;;;;14.14;67.25;94430.69;5073722;28;20050;-77
2021/10/21 05:59:17;;;;;;;9.02;5.32;;;;;;;14.14;67.63;94446.56;5052825;28;20510;-77
2021/10/21 06:01:43;;;;;;;10.48;5.50;;;;;;;14.13;68.21;94460.88;5053269;28;20045;-77
2021/10/21 06:04:09;;;;;;;9.25;5.32;;;;;;;13.98;68.89;94476.19;5062167;28;20041;-77
2021/10/21 06:06:37;;;;;;;9.82;5.20;;;;;;;13.76;69.70;94477.16;5053894;28;20071;-78
2021/10/21 06:09:03;;;;;;;13.43;6.10;;;;;;;13.93;69.16;94515.25;5051687;28;20090;-77
2021/10/21 06:11:30;;;;;;;10.40;5.20;;;;;;;14.30;67.99;94507.69;5047786;28;20047;-77
2021/10/21 06:13:57;;;;;;;11.23;5.53;;;;;;;14.10;70.36;94520.47;5051562;28;20045;-78
2021/10/21 06:16:23;;;;;;;6.38;3.80;;;;;;;14.11;70.00;94537.16;5037936;28;20482;-78
2021/10/21 06:18:49;;;;;;;6.80;3.83;;;;;;;13.78;74.66;94556.19;5056174;28;20040;-77
2021/10/21 06:21:21;;;;;;;5.15;3.20;;;;;;;13.61;77.91;94547.16;5050424;28;20044;-78
2021/10/21 06:23:46;;;;;;;6.18;2.92;;;;;;;13.46;79.72;94579.34;5049469;28;20168;-78
2021/10/21 06:26:13;;;;;;;5.00;2.92;;;;;;;13.25;83.03;94593.13;5035266;28;20049;-78
2021/10/21 06:28:40;;;;;;;5.68;2.22;;;;;;;12.94;81.14;94598.47;5048669;28;20033;-78
2021/10/21 06:31:05;;;;;;;3.30;1.58;;;;;;;12.61;80.72;94586.44;5048873;28;20041;-77
2021/10/21 06:33:31;;;;;;;5.28;1.77;;;;;;;12.35;82.58;94599.47;5038653;28;20490;-77
2021/10/21 06:35:57;;;;;;;3.35;1.58;;;;;;;12.22;83.66;94585.28;5042489;28;20037;-77
2021/10/21 06:38:22;;;;;;;2.10;1.40;;;;;;;12.15;83.94;94600.75;5051199;28;20045;-76
2021/10/21 06:40:48;;;;;;;3.00;1.52;;;;;;;12.03;83.36;94603.19;5049384;28;20037;-79
2021/10/21 06:43:13;;;;;;;4.07;1.40;;;;;;;12.00;84.04;94598.50;5046720;28;20399;-79
2021/10/21 06:45:39;;;;;;;1.50;1.10;;;;;;;11.99;83.52;94615.41;5041302;28;20042;-79
2021/10/21 06:48:04;;;;;;;3.63;1.42;;;;;;;11.98;82.54;94611.19;5049776;28;20044;-78
2021/10/21 06:50:30;;;;;;;1.98;1.38;;;;;;;12.05;81.88;94606.28;5044954;28;20037;-80
2021/10/21 06:52:56;;;;;;;10.00;1.60;;;;;;;12.11;80.34;94628.81;5041883;28;20038;-79
2021/10/21 06:55:22;;;;;;;2.55;1.20;;;;;;;12.21;76.59;94598.78;5025488;28;20044;-79
2021/10/21 06:57:53;;;;;;;1.30;1.00;;;;;;;12.23;73.25;94631.69;5034104;28;20052;-79
2021/10/21 07:00:19;;;;;;;2.47;0.70;;;;;;;12.41;65.79;94618.59;5054066;28;20043;-78
2021/10/21 07:02:45;;;;;;;6.82;0.95;;;;;;;12.50;64.85;94626.56;5031390;28;20033;-78
2021/10/21 07:05:12;;;;;;;4.22;1.00;;;;;;;12.64;62.87;94617.50;5040693;28;20041;-79
2021/10/21 07:07:39;;;;;;;1.90;0.77;;;;;;;12.67;63.58;94641.72;5070038;28;20087;-77
2021/10/21 07:10:06;;;;;;;3.90;1.30;;;;;;;12.70;63.88;94639.25;5051517;28;20047;-77
2021/10/21 07:12:32;;;;;;;7.78;1.65;;;;;;;12.65;65.76;94640.13;5041945;28;20040;-78
2021/10/21 07:14:58;;;;;;;8.10;1.17;;;;;;;12.63;65.39;94652.09;5049859;28;20086;-78
2021/10/21 07:17:24;;;;;;;3.55;1.00;;;;;;;12.56;66.48;94647.25;5046507;28;20048;-77
2021/10/21 07:19:50;;;;;;;4.80;1.05;;;;;;;12.52;67.95;94651.56;5036458;28;20049;-79
2021/10/21 07:22:16;;;;;;;4.38;1.00;;;;;;;12.52;67.63;94659.47;5037454;28;20636;-78
2021/10/21 07:24:43;;;;;;;5.03;1.30;;;;;;;12.36;70.13;94653.03;5037417;28;20037;-81
2021/10/21 07:27:09;;;;;;;8.27;1.23;;;;;;;12.34;70.24;94676.28;5034783;28;20055;-78
2021/10/21 07:29:35;;;;;;;6.00;1.50;;;;;;;12.25;71.13;94669.09;5052782;28;20737;-79
2021/10/21 07:32:01;;;;;;;8.65;1.48;;;;;;;12.30;71.04;94698.00;5062096;28;20098;-82
2021/10/21 07:34:27;;;;;;;4.43;1.30;;;;;;;12.16;73.46;94697.28;5039034;28;20041;-81
2021/10/21 07:36:53;;;;;;;5.28;1.23;;;;;;;12.13;74.78;94692.59;5032884;28;20058;-79
2021/10/21 07:39:21;;;;;;;5.53;1.52;;;;;;;12.03;75.61;94729.75;5048367;28;20543;-78
2021/10/21 07:41:48;;;;;;;2.67;1.60;;;;;;;11.99;76.20;94723.50;5035314;28;20037;-80
2021/10/21 07:44:14;;;;;;;3.72;1.27;;;;;;;11.86;76.37;94731.09;5056539;28;20044;-80
2021/10/21 07:46:42;;;;;;;8.15;1.60;;;;;;;11.86;77.28;94736.38;5049929;28;20044;-79
2021/10/21 07:49:08;;;;;;;11.15;1.73;;;;;;;11.83;77.31;94736.97;5026082;28;20041;-79
2021/10/21 07:51:34;;;;;;;2.92;1.35;;;;;;;11.88;77.09;94738.72;5048804;28;20747;-80
2021/10/21 07:54:00;;;;;;;3.70;1.30;;;;;;;11.86;77.26;94739.03;5049509;28;20045;-80
2021/10/21 07:56:27;;;;;;;3.95;1.20;;;;;;;11.98;77.30;94754.34;5030381;28;20115;-81
2021/10/21 07:58:53;;;;;;;4.65;1.52;;;;;;;11.92;77.57;94756.31;5034986;28;20106;-81
2021/10/21 08:01:18;;;;;;;4.13;1.50;;;;;;;11.96;77.33;94773.09;5067535;28;20041;-80
2021/10/21 08:03:44;;;;;;;5.47;1.65;;;;;;;12.09;76.98;94781.31;5051247;28;20423;-80
2021/10/21 08:06:09;;;;;;;4.00;1.73;;;;;;;12.13;76.11;94792.81;5051819;28;20041;-81
2021/10/21 08:08:35;;;;;;;4.80;1.50;;;;;;;12.15;75.55;94782.75;5051788;28;20464;-80
2021/10/21 08:11:00;;;;;;;3.50;1.08;;;;;;;12.21;71.46;94768.38;5030753;28;20052;-80
2021/10/21 08:13:26;;;;;;;6.28;1.30;;;;;;;12.25;72.45;94769.31;5051620;28;20158;-80
2021/10/21 08:15:52;;;;;;;2.88;1.25;;;;;;;12.24;70.96;94793.38;5051858;28;20045;-80
2021/10/21 08:18:17;;;;;;;5.15;1.40;;;;;;;12.36;70.79;94784.97;5052068;28;20063;-80
2021/10/21 08:20:44;;;;;;;4.40;1.13;;;;;;;12.32;68.64;94783.97;5050951;28;20044;-80
2021/10/21 08:23:10;;;;;;;5.22;1.20;;;;;;;12.33;68.13;94796.09;5041999;28;20451;-80
2021/10/21 08:25:37;;;;;;;4.22;1.38;;;;;;;12.38;67.28;94793.34;5014591;28;20120;-80
2021/10/21 08:28:03;;;;;;;6.15;1.60;;;;;;;12.45;65.68;94814.81;5050901;28;20056;-81
2021/10/21 08:30:31;;;;;;;4.68;1.48;;;;;;;12.54;65.20;94839.44;5032771;28;20040;-80
2021/10/21 08:32:57;;;;;;;4.50;1.30;;;;;;;12.57;63.35;94820.38;5049231;28;20044;-80
2021/10/21 08:35:25;;;;;;;5.47;1.50;;;;;;;12.65;63.04;94838.09;5051227;28;20086;-80
2021/10/21 08:37:51;;;;;;;6.13;1.80;;;;;;;12.71;62.71;94822.16;5047938;28;20041;-79
2021/10/21 08:40:16;;;;;;;5.15;1.25;;;;;;;12.77;63.17;94831.53;5043270;28;20045;-80
2021/10/21 08:42:45;;;;;;;5.18;1.40;;;;;;;12.75;61.96;94833.69;5047898;28;20108;-80
2021/10/21 08:45:12;;;;;;;9.40;1.55;;;;;;;12.79;62.98;94845.22;5031834;28;20045;-79
2021/10/21 08:47:43;;;;;;;6.93;1.80;;;;;;;12.82;62.75;94847.25;5038378;28;20041;-79
2021/10/21 08:50:11;;;;;;;6.75;1.58;;;;;;;12.77;61.93;94860.56;5041307;28;20051;-80
2021/10/21 08:52:36;;;;;;;9.13;1.85;;;;;;;12.75;62.28;94849.53;5054498;28;20041;-80
2021/10/21 08:55:04;;;;;;;6.57;1.45;;;;;;;12.76;61.79;94848.47;5049908;28;20061;-80
2021/10/21 08:57:31;;;;;;;5.57;1.30;;;;;;;12.74;61.75;94863.81;5042412;28;20076;-80
2021/10/21 08:59:57;;;;;;;6.38;1.30;;;;;;;12.65;60.86;94864.50;5041506;28;20042;-80
2021/10/21 09:02:36;;;;;;;13.52;1.90;;;;;;;12.77;61.56;94871.13;5017405;28;20099;-79
2021/10/21 09:07:57;;;;;;;6.55;1.45;;;;;;;12.76;61.33;94866.94;5044781;28;20048;-81
2021/10/21 09:10:24;;;;;;;4.35;1.30;;;;;;;12.81;61.35;94874.72;5040868;28;20049;-81
2021/10/21 09:12:50;;;;;;;7.90;1.60;;;;;;;12.68;61.41;94872.94;5049276;28;20052;-81
2021/10/21 09:15:22;;;;;;;5.43;1.52;;;;;;;12.71;61.66;94848.56;5044705;28;20120;-81
2021/10/21 09:17:47;;;;;;;11.02;1.80;;;;;;;12.83;60.90;94883.16;5038969;28;20041;-79
2021/10/21 09:20:19;;;;;;;6.05;1.35;;;;;;;12.79;60.09;94872.41;5053117;28;20640;-81
2021/10/21 09:22:56;;;;;;;12.05;1.77;;;;;;;12.81;61.46;94870.25;5049353;28;20068;-81
2021/10/21 09:25:25;;;;;;;6.80;1.60;;;;;;;12.99;60.71;94879.06;5042088;28;20048;-79
2021/10/21 09:27:51;;;;;;;10.45;1.60;;;;;;;12.97;59.17;94878.59;5047693;28;20554;-83
2021/10/21 09:30:27;;;;;;;10.27;1.65;;;;;;;12.89;59.76;94879.31;5033397;28;20143;-82
2021/10/21 09:32:54;;;;;;;5.20;2.10;;;;;;;12.93;58.46;94898.75;5044333;28;20099;-80
2021/10/21 09:35:22;;;;;;;10.82;1.63;;;;;;;12.93;56.99;94877.63;5026114;28;20472;-82
2021/10/21 09:37:48;;;;;;;8.90;1.30;;;;;;;12.88;56.54;94880.38;5049783;28;20045;-79
2021/10/21 09:40:21;;;;;;;9.50;1.48;;;;;;;12.82;55.38;94882.34;5057513;28;20044;-81
2021/10/21 09:42:56;;;;;;;4.03;1.50;;;;;;;12.69;54.95;94908.81;5062737;28;20040;-79
2021/10/21 09:45:24;;;;;;;5.68;1.20;;;;;;;12.69;54.27;94888.47;5062528;28;20487;-81
2021/10/21 09:47:59;;;;;;;8.70;1.70;;;;;;;12.69;54.83;94898.25;5026773;28;20042;-78
2021/10/21 09:50:38;;;;;;;8.95;1.60;;;;;;;12.69;55.05;94882.41;5053165;28;20049;-78
2021/10/21 09:53:13;;;;;;;5.63;1.80;;;;;;;12.87;54.73;94878.81;5032999;28;20414;-81
2021/10/21 09:55:42;;;;;;;6.03;1.33;;;;;;;13.25;53.76;94893.56;5033098;28;20042;-81
2021/10/21 09:58:11;;;;;;;14.88;1.55;;;;;;;14.30;51.76;94905.41;5037285;28;20468;-80
2021/10/21 10:00:39;;;;;;;7.95;1.85;;;;;;;14.08;51.78;94913.44;5049806;28;20128;-79
2021/10/21 10:03:16;;;;;;;5.57;1.15;;;;;;;14.04;51.82;94929.16;5044150;28;20094;-79
2021/10/21 10:05:49;;;;;;;8.95;1.63;;;;;;;13.63;52.20;94917.75;5054137;28;20089;-79
2021/10/21 10:08:17;;;;;;;9.15;1.35;;;;;;;14.32;50.32;94945.59;5053830;28;20044;-80
2021/10/21 10:10:44;;;;;;;14.45;1.63;;;;;;;14.48;48.90;94931.94;5047084;28;20122;-79
2021/10/21 10:13:11;;;;;;;5.20;1.70;;;;;;;15.47;46.88;94938.56;5062516;28;20127;-80
2021/10/21 10:15:38;;;;;;;4.95;1.20;;;;;;;16.28;45.19;94934.31;5064246;28;20032;-82
2021/10/21 10:18:06;;;;;;;9.05;1.80;;;;;;;16.04;44.92;94927.69;5029546;28;20041;-79
2021/10/21 10:20:31;;;;;;;6.72;1.42;;;;;;;16.47;43.53;94933.13;5052743;28;20045;-80
2021/10/21 10:23:01;;;;;;;7.28;1.30;;;;;;;17.07;42.30;94931.97;5071887;28;20075;-81
2021/10/21 10:25:26;;;;;;;5.60;1.52;;;;;;;16.66;42.03;94933.47;5059244;28;20051;-80
2021/10/21 10:28:01;;;;;;;4.63;1.33;;;;;;;17.00;41.33;94921.09;5050994;28;20120;-78
2021/10/21 10:30:46;;;;;;;;;;;;;;;17.62;40.16;94955.94;5066064;28;20040;-78
2021/10/21 10:33:13;;;;;;;11.55;1.65;;;;;;;16.73;41.54;94943.59;5050262;28;20519;-77
2021/10/21 10:35:41;;;;;;;4.88;1.63;;;;;;;16.51;41.80;94965.94;5048975;28;20033;-79
2021/10/21 10:38:09;;;;;;;3.35;1.10;;;;;;;16.50;42.24;94972.31;5070815;28;20051;-79
2021/10/21 10:40:46;;;;;;;5.40;1.35;;;;;;;15.92;42.73;94954.13;5061160;28;20052;-78
2021/10/21 10:43:14;;;;;;;6.55;1.42;;;;;;;16.13;43.00;94964.03;5037951;28;20033;-78
2021/10/21 10:45:45;;;;;;;8.98;1.80;;;;;;;16.73;41.33;94960.31;5039793;28;20046;-79
2021/10/21 10:48:11;;;;;;;6.30;1.70;;;;;;;16.07;43.26;94953.56;5015747;28;20391;-82
2021/10/21 10:50:40;;;;;;;3.72;1.30;;;;;;;16.03;42.65;94958.00;5052161;28;20049;-78
2021/10/21 10:53:07;;;;;;;6.85;1.80;;;;;;;16.34;42.24;94948.97;5047611;28;20045;-81
2021/10/21 10:55:39;;;;;;;3.78;1.48;;;;;;;16.27;41.70;94964.59;5043847;28;20091;-78
2021/10/21 10:58:27;;;;;;;7.75;1.50;;;;;;;16.80;41.07;94928.69;5037973;28;20037;-82
2021/10/21 11:00:55;;;;;;;6.60;1.40;;;;;;;17.17;39.86;94961.94;5040945;28;20045;-81
2021/10/21 11:03:38;;;;;;;9.88;2.45;;;;;;;17.34;39.93;94959.16;5034817;28;20042;-81
2021/10/21 11:06:10;;;;;;;3.88;1.50;;;;;;;17.79;39.76;94961.06;5049874;28;20044;-78
2021/10/21 11:08:48;;;;;;;6.70;1.27;;;;;;;18.29;38.14;94966.53;5057266;28;20047;-78
2021/10/21 11:11:48;;;;;;;9.90;1.60;;;;;;;18.29;37.71;94961.22;5032077;28;20044;-79
2021/10/21 11:14:33;;;;;;;5.78;1.38;;;;;;;18.23;38.25;94951.88;4990682;28;20061;-78
2021/10/21 11:16:59;;;;;;;7.85;1.60;;;;;;;18.21;38.63;94943.44;5034272;28;20057;-78
2021/10/21 11:19:41;;;;;;;5.95;1.70;;;;;;;18.30;37.83;94984.06;5032703;28;20068;-80
2021/10/21 11:22:07;;;;;;;10.32;1.60;;;;;;;18.73;37.57;94958.75;5063291;28;20040;-78
2021/10/21 11:24:56;;;;;;;9.57;1.35;;;;;;;18.26;37.46;94952.00;5026518;28;20052;-78
2021/10/21 11:27:28;;;;;;;7.22;1.70;;;;;;;18.56;36.81;94953.66;5060817;28;20139;-79
2021/10/21 11:30:19;;;;;;;5.88;1.52;;;;;;;19.21;36.92;94943.78;5038327;28;20658;-78
2021/10/21 11:32:46;;;;;;;6.18;1.50;;;;;;;18.61;37.69;94961.44;5034043;28;20134;-80
2021/10/21 11:35:16;;;;;;;5.97;1.50;;;;;;;18.99;36.80;94981.63;5041623;28;20049;-79